Aktuell sind 257 Gäste und ein Mitglied online

[source: ADDS]
METAR
EDVE 291820Z 09005KT CAVOK 26/20 Q1011

EDDV 291820Z 09005KT 9999 FEW080CB BKN300 27/19 Q1010 NOSIG

ETHS 291820Z 06008KT 9999 FEW120 BKN300 26/16 Q1011 BLU+

ETHC 291820Z 08005KT 9999 FEW050 SCT070 BKN260 28/16 Q1010 BLU+

EDVK 291820Z 16010KT 9999 FEW050TCU 28/16 Q1011

TAF
TAF EDVE 291700Z 2918/2921 08004KT CAVOK

TAF EDDV 291700Z 2918/3018 08004KT CAVOK PROB30 TEMPO 2921/3006 TSRA BKN040CB BECMG 3006/3009 26010KT TEMPO 3010/3016 27015G25KT PROB30 TEMPO 3010/3018 TSRA BKN025CB

TAF AMD ETHS 291430Z 2914/2923 32008KT 9999 NSW SCT150 BKN300 CANCEL 1500

TAF AMD ETHC 291645Z 2914/2923 VRB03KT 9999 NSW FEW140 BKN350 CANCEL 1700

TAF EDVK 291700Z 2918/3001 17007KT CAVOK

SR / SS: 03:04 / 19:26 UTC (EDVE 2017-05-29)
Wir begrüßen Harry als neues Mitglied im Verein! Herzlich Willkommen! +++ Ferdinand und Dennis haben die Theorieprüfung bestanden! Herzlichen Glückwunsch! +++ Neue Aquila 211 mit NVFR Zulassung und Glascockpit bestellt! ETA April 2017! +++ Herzlich Willkommen im Verein Mike! +++ Georg startet seine Ausbildung! Viel Erfolg und always happy landings! +++ Wir begrüßen Lasse als neues Mitglied im Verein und wünschen always happy landings! +++ Hallo und herzlichen Willkommen im Verein Thomas! +++ Die Termine für den nächsten BZF Kurs sind online! +++ Lukas hat das BZF bestanden! Herzlichen Glückwunsch! +++ Die Mitgliederversammlung am 20.12.2016 genehmigt den Antrag zur Flottenerneuerung +++ Alexander hat seine PPL(A)-Prüfung bestanden! Herzlichen Glückwunsch und Always Happy Landings! +++ Heinrich hat sich freigeflogen. Herzlichen Glückwunsch und always happy landings! +++ Wir wünschen Klaus viel Erfolg bei seiner Ausbildung! +++ Herzlichen Willkommen im Verein Uwe! Viel Spaß bei deiner Ausbildung! +++ Gunnar hat seine LAPL-Prüfung bestanden! Herzlichen Glückwunsch und always happy landings! +++ Christian hat die Theoretische Prüfung bestanden! Herzlichen Glückwunsch! +++ +++

 

Das Prinzip des Heizgerätes zum Vorheizen unserer Flugzeuge ist einfach: Ein Gasbrenner erhitzt Luft und bläst sie in eine Blechkiste. Dort beschleunigt ein großer Lüfter die Luft und drückt sie durch Luftschläuche in den Motorraum eines Flugzeuges. Nach etwa 20-30 Minuten Vorheizzeit ist eine ausreichende Temperatur zum Motorstart vorhanden.

Weiterlesen ...

Auch im Winter stehen unsere Flugzeuge sicher untergebracht in unserer Halle. Schneelast- und sturmwinderprobt ist sie bereits und hat diese Wettereinflüsse prima überstanden. Im Winter sind bei Schnee und Eis ein paar Erfahrungswerte nützlich:

Weiterlesen ...

Die Halle erlaubt eine einfache Aufstellung der Luftfahrzeuge. Jedem Flugzeug ist ein fester Platz zugewiesen der es erlaubt, mit geringem Aufwand das gewünschte Flugzeug nach vorne zu holen. Ziel bei der gewählten Aufstellung ist es,

Weiterlesen ...

Das Tor der Halle ist ein sogenanntes Planentor, es funktioniert ungefähr so wie ein Duschvorhang. Die linke und die rechte Hälfte des Tores waren in der Mitte durch sechs Gurte verbunden (drei an der Innenseite, drei an der Außenseite), wenn das Tor geschlossen ist.

Der obere Gurt (innen und außen) ist für normal große Leute

Weiterlesen ...

Die installierte elektrische Anlage ist wartungsfrei. Das Licht wird automatisch, durch Bewegungssensoren gesteuert, ein- und ausgeschaltet.

Weiterlesen ...

Letztes NOTAM EDVE
von 08.06.2017 0400Z bis 08.06.2017 1800Z
OBSTACLE CLEARANCE SURFACE PENETRATED BY 2 MOBILE CRANES. PSN ABM THR08, 280M S OF RCL, ON APRON. ELEV 345FT/50FT AGL. DAY AND NIGHT [more]

Letztes NOTAM EDBC
von 18.05.2017 1441Z bis 14.08.2017 2359Z
ALL VFR AND IFR PROC TEMPO SUSPENDED. USABLE ONLY FOR FLIGHT VALIDATION.

Letztes NOTAM EDVM
von 01.04.2017 0900Z bis 31.05.2017 2000Z
APRON 2 AREA WIP REDUCED TO INSTALLED FENCED CORRIDOR, USE CAUTION.

Letztes NOTAM EDDV
von 22.06.2017 0800Z bis 22.06.2017 1200Z
HAMBURG DVOR/TAC HAM 113,10 MHZ CH78X, DVORTAC ON MAINTENANCE, DO NOT USE, FALSE INDICATIONS POSSIBLE

Letztes NOTAM EDVK
von 08.06.2017 0800Z bis 08.06.2017 1000Z
WARBURG DVOR/DME WRB 113.70/CH84X, DVOR PART ON MAINT. DO NOT USE, FALSE INDICATIONS POSS.

Letztes NOTAM ETHS
von 30.05.2017 1030Z bis 02.06.2017 1000Z
AERODROME SURVEILLANCE RADAR SERVICE PROVIDED OUT OF BREMEN ACC, C/S FASSBERG RADAR ON FREQ 122.425MHZ. TUE AND WED 1030-1500 THU 070 [more]

EDCB.png          aerodata150     Radio38